Time;durP1;ratioP1;P1;durP2;ratioP2;P2;SDS_P1;SDS_P2;PMS_P1;PMS_P2;Temp;Humidity;BMP_temperature;BMP_pressure;BME280_temperature;BME280_humidity;BME280_pressure;Samples;Min_cycle;Max_cycle;Signal;HPM_P1;HPM_P2
2022/03/17 00:01:45;;;;;;;35.47;20.27;;;11.90;99.90;;;;;;5056860;28;20645;-91
2022/03/17 00:04:43;;;;;;;35.77;20.07;;;12.00;99.90;;;;;;5047206;28;20205;-91
2022/03/17 00:07:14;;;;;;;33.10;19.57;;;12.00;99.90;;;;;;5057627;28;20205;-91
2022/03/17 00:09:41;;;;;;;34.70;21.23;;;12.00;99.90;;;;;;5054410;28;20208;-92
2022/03/17 00:12:09;;;;;;;31.67;19.13;;;12.00;99.90;;;;;;5053242;28;20212;-93
2022/03/17 00:14:36;;;;;;;37.93;21.63;;;12.00;99.90;;;;;;5064225;28;20204;-92
2022/03/17 00:17:08;;;;;;;36.50;20.20;;;12.00;99.90;;;;;;5063175;28;20684;-92
2022/03/17 00:19:38;;;;;;;33.17;19.77;;;12.00;99.90;;;;;;5079783;28;20196;-92
2022/03/17 00:22:16;;;;;;;38.33;22.33;;;12.00;99.90;;;;;;5062757;28;20208;-91
2022/03/17 00:24:44;;;;;;;35.10;21.37;;;12.00;99.90;;;;;;5060655;28;20220;-91
2022/03/17 00:27:21;;;;;;;33.73;21.47;;;12.00;99.90;;;;;;5037744;28;20213;-91
2022/03/17 00:30:10;;;;;;;37.83;21.43;;;11.90;99.90;;;;;;5061290;28;20291;-91
2022/03/17 00:32:48;;;;;;;33.83;20.67;;;12.00;99.90;;;;;;5064827;28;20205;-90
2022/03/17 00:38:08;;;;;;;39.10;22.70;;;12.00;99.90;;;;;;5066596;28;20257;-93
2022/03/17 00:40:37;;;;;;;38.67;21.67;;;12.00;99.90;;;;;;5063446;28;20207;-92
2022/03/17 00:43:12;;;;;;;36.00;21.57;;;12.00;99.90;;;;;;5065320;28;20196;-90
2022/03/17 00:45:47;;;;;;;38.30;22.27;;;12.00;99.90;;;;;;5055186;28;20262;-93
2022/03/17 00:48:19;;;;;;;39.80;21.67;;;12.10;99.90;;;;;;5057520;28;20331;-91
2022/03/17 00:51:03;;;;;;;41.27;23.53;;;12.00;99.90;;;;;;5062352;28;20211;-90
2022/03/17 00:53:29;;;;;;;37.37;22.67;;;12.10;99.90;;;;;;5064355;28;20201;-90
2022/03/17 00:55:56;;;;;;;40.57;22.57;;;12.00;99.90;;;;;;5078639;28;20255;-90
2022/03/17 00:58:31;;;;;;;44.33;23.03;;;12.00;99.90;;;;;;5072877;28;20205;-92
2022/03/17 01:00:59;;;;;;;36.13;21.63;;;12.10;99.90;;;;;;5064033;28;20685;-90
2022/03/17 01:03:51;;;;;;;38.93;22.80;;;12.00;99.90;;;;;;5066412;28;20564;-92
2022/03/17 01:06:18;;;;;;;38.03;21.87;;;12.00;99.90;;;;;;5075163;28;20229;-91
2022/03/17 01:08:59;;;;;;;36.50;21.63;;;12.10;99.90;;;;;;5070757;28;20241;-91
2022/03/17 01:11:27;;;;;;;40.93;23.07;;;12.10;99.90;;;;;;5070016;28;20216;-91
2022/03/17 01:14:00;;;;;;;38.87;22.60;;;12.10;99.90;;;;;;5046941;28;20203;-92
2022/03/17 01:16:34;;;;;;;39.23;22.07;;;12.10;99.90;;;;;;5066317;28;20205;-91
2022/03/17 01:19:02;;;;;;;36.87;22.03;;;12.00;99.90;;;;;;5065038;28;20236;-90
2022/03/17 01:21:36;;;;;;;40.50;22.80;;;12.10;99.90;;;;;;5067419;28;20213;-92
2022/03/17 01:24:04;;;;;;;38.90;22.50;;;12.10;99.90;;;;;;5060044;28;20223;-90
2022/03/17 01:26:50;;;;;;;39.53;21.93;;;12.00;99.90;;;;;;5037583;28;20236;-92
2022/03/17 01:29:23;;;;;;;37.13;21.03;;;12.10;99.90;;;;;;5072073;28;20204;-90
2022/03/17 01:31:51;;;;;;;38.40;23.23;;;12.00;99.90;;;;;;5065531;28;20206;-90
2022/03/17 01:34:18;;;;;;;41.63;23.33;;;12.10;99.90;;;;;;5058861;28;20206;-91
2022/03/17 01:37:04;;;;;;;41.10;22.90;;;12.10;99.90;;;;;;5065999;28;20209;-92
2022/03/17 01:39:44;;;;;;;36.30;22.47;;;12.00;99.90;;;;;;5066490;28;20217;-90
2022/03/17 01:42:14;;;;;;;35.67;21.10;;;12.10;99.90;;;;;;5031437;28;20235;-92
2022/03/17 01:44:46;;;;;;;40.37;22.87;;;12.00;99.90;;;;;;5062184;28;20223;-91
2022/03/17 01:47:26;;;;;;;47.83;23.47;;;11.90;99.90;;;;;;5063702;28;20233;-92
2022/03/17 01:50:08;;;;;;;40.77;23.10;;;12.00;99.90;;;;;;5055824;28;20262;-90
2022/03/17 01:52:40;;;;;;;40.07;23.77;;;11.80;99.90;;;;;;5070733;28;20199;-91
2022/03/17 01:55:09;;;;;;;40.47;23.03;;;11.90;99.90;;;;;;5075918;28;20236;-90
2022/03/17 01:57:40;;;;;;;41.57;23.63;;;11.80;99.90;;;;;;5071442;28;20202;-92
2022/03/17 02:00:17;;;;;;;42.07;22.97;;;12.00;99.90;;;;;;5071725;28;20211;-91
2022/03/17 02:02:47;;;;;;;39.20;22.10;;;11.90;99.90;;;;;;5072184;28;20196;-90
2022/03/17 02:05:24;;;;;;;38.43;22.53;;;11.90;99.90;;;;;;5071844;28;20260;-91
2022/03/17 02:07:51;;;;;;;42.50;22.17;;;12.00;99.90;;;;;;5071059;28;20209;-92
2022/03/17 02:13:08;;;;;;;36.23;21.50;;;11.90;99.90;;;;;;5053762;28;20230;-92
2022/03/17 02:13:17;;;;;;;38.90;23.27;;;12.00;99.90;;;;;;5070925;28;20235;-90
2022/03/17 02:15:51;;;;;;;39.53;22.17;;;11.90;99.90;;;;;;5069815;28;20197;-91
2022/03/17 02:18:48;;;;;;;41.13;22.73;;;12.00;99.90;;;;;;5069782;28;20189;-90
2022/03/17 02:21:16;;;;;;;36.10;21.40;;;12.00;99.90;;;;;;5069505;28;20209;-91
2022/03/17 02:26:32;;;;;;;37.83;22.63;;;12.00;99.90;;;;;;5067718;28;20228;-90
2022/03/17 02:29:15;;;;;;;37.83;21.47;;;12.00;99.90;;;;;;5070454;28;20211;-91
2022/03/17 02:31:44;;;;;;;37.90;21.47;;;12.00;99.90;;;;;;5070063;28;20243;-91
2022/03/17 02:34:20;;;;;;;38.17;22.80;;;12.00;99.90;;;;;;5066403;28;20206;-91
2022/03/17 02:36:51;;;;;;;40.70;21.63;;;12.10;99.90;;;;;;5069727;28;20219;-91
2022/03/17 02:39:21;;;;;;;38.43;21.50;;;12.10;99.90;;;;;;5070545;28;20204;-91
2022/03/17 02:42:03;;;;;;;40.67;22.13;;;12.10;99.90;;;;;;5068535;28;20205;-92
2022/03/17 02:44:30;;;;;;;34.30;20.27;;;12.10;99.90;;;;;;5078192;28;20209;-90
2022/03/17 02:47:03;;;;;;;37.53;20.57;;;12.10;99.90;;;;;;5067487;28;20252;-89
2022/03/17 02:49:38;;;;;;;39.90;22.13;;;12.10;99.90;;;;;;5057533;28;20205;-91
2022/03/17 02:52:18;;;;;;;36.70;20.67;;;12.20;99.90;;;;;;5067987;28;20212;-91
2022/03/17 02:54:46;;;;;;;35.07;20.70;;;12.20;99.90;;;;;;5072189;28;20240;-89
2022/03/17 03:00:58;;;;;;;32.57;19.67;;;12.10;99.90;;;;;;5079646;28;20207;-91
2022/03/17 03:03:25;;;;;;;36.70;21.33;;;12.10;99.90;;;;;;5087997;28;20211;-91
2022/03/17 03:05:57;;;;;;;40.43;21.67;;;12.20;99.90;;;;;;5091791;28;20263;-91
2022/03/17 03:08:29;;;;;;;38.23;20.90;;;12.20;99.90;;;;;;5093270;28;20232;-91
2022/03/17 03:11:04;;;;;;;37.00;19.93;;;12.20;99.90;;;;;;5094018;28;20207;-90
2022/03/17 03:13:39;;;;;;;36.30;20.47;;;12.20;99.90;;;;;;5089612;28;20274;-91
2022/03/17 03:16:08;;;;;;;37.10;20.23;;;12.20;99.90;;;;;;5079506;28;20619;-89
2022/03/17 03:18:36;;;;;;;38.27;19.90;;;12.20;99.90;;;;;;5093943;28;20260;-90
2022/03/17 03:21:07;;;;;;;39.60;21.00;;;12.20;99.90;;;;;;5081223;28;20260;-89
2022/03/17 03:23:34;;;;;;;38.63;21.37;;;12.20;99.90;;;;;;5087826;28;20215;-91
2022/03/17 03:26:03;;;;;;;40.53;21.27;;;12.10;99.90;;;;;;5096436;28;20334;-89
2022/03/17 03:28:39;;;;;;;37.53;21.23;;;12.20;99.90;;;;;;5094107;28;20204;-91
2022/03/17 03:31:06;;;;;;;39.97;22.30;;;12.10;99.90;;;;;;5092765;28;20302;-88
2022/03/17 03:33:43;;;;;;;41.97;22.07;;;12.10;99.90;;;;;;5092560;28;20207;-90
2022/03/17 03:39:06;;;;;;;42.47;22.67;;;11.90;99.90;;;;;;5074342;28;20232;-90
2022/03/17 03:41:49;;;;;;;45.03;23.17;;;11.90;99.90;;;;;;5069750;28;20575;-91
2022/03/17 03:44:32;;;;;;;42.30;21.83;;;11.90;99.90;;;;;;5079160;28;20204;-91
2022/03/17 03:47:07;;;;;;;47.47;22.90;;;11.80;99.90;;;;;;5085508;28;20235;-90
2022/03/17 03:49:44;;;;;;;46.47;24.00;;;11.90;99.90;;;;;;5090768;28;20204;-90
2022/03/17 03:52:15;;;;;;;47.63;24.70;;;11.80;99.90;;;;;;5076218;28;20208;-93
2022/03/17 03:54:44;;;;;;;52.47;25.07;;;11.70;99.90;;;;;;5064438;28;20269;-91
2022/03/17 03:57:12;;;;;;;48.63;25.13;;;11.60;99.90;;;;;;5097361;28;20258;-91
2022/03/17 03:59:47;;;;;;;54.03;25.93;;;11.60;99.90;;;;;;5093728;28;20210;-90
2022/03/17 04:02:19;;;;;;;54.30;25.97;;;11.60;99.90;;;;;;5095620;28;20198;-91
2022/03/17 04:04:54;;;;;;;52.57;25.70;;;11.50;99.90;;;;;;5053174;28;20195;-89
2022/03/17 04:07:24;;;;;;;54.90;27.17;;;11.40;99.90;;;;;;5085831;28;20228;-90
2022/03/17 04:09:52;;;;;;;61.00;28.93;;;11.30;99.90;;;;;;5073408;28;20203;-90
2022/03/17 04:12:20;;;;;;;54.07;27.13;;;11.30;99.90;;;;;;5092333;28;20241;-90
2022/03/17 04:14:53;;;;;;;54.83;26.63;;;11.20;99.90;;;;;;5076163;28;20207;-92
2022/03/17 04:17:23;;;;;;;50.57;27.20;;;11.20;99.90;;;;;;5095468;28;20208;-90
2022/03/17 04:19:53;;;;;;;54.70;26.13;;;11.20;99.90;;;;;;5088298;28;20408;-90
2022/03/17 04:22:23;;;;;;;49.43;24.67;;;11.20;99.90;;;;;;5087770;28;20234;-90
2022/03/17 04:24:51;;;;;;;45.33;23.17;;;11.10;99.90;;;;;;5086450;28;20225;-89
2022/03/17 04:27:18;;;;;;;32.60;19.20;;;11.10;99.90;;;;;;5068130;28;20235;-87
2022/03/17 04:29:46;;;;;;;30.00;16.57;;;11.00;99.90;;;;;;5083951;28;20230;-89
2022/03/17 04:32:17;;;;;;;21.90;14.07;;;11.00;99.90;;;;;;5061629;28;20218;-90
2022/03/17 04:34:55;;;;;;;22.53;14.07;;;10.90;99.90;;;;;;5071582;28;20213;-89
2022/03/17 04:37:27;;;;;;;20.87;13.50;;;10.80;99.90;;;;;;5075072;28;20203;-90
2022/03/17 04:39:58;;;;;;;19.83;13.23;;;10.80;99.90;;;;;;5085316;28;20206;-89
2022/03/17 04:42:31;;;;;;;20.27;13.60;;;10.90;99.90;;;;;;5065733;28;20214;-88
2022/03/17 04:44:58;;;;;;;19.47;14.17;;;10.70;99.90;;;;;;5059629;28;20631;-89
2022/03/17 04:47:35;;;;;;;21.27;15.13;;;10.50;99.90;;;;;;5066104;28;20244;-91
2022/03/17 04:50:16;;;;;;;22.73;15.30;;;10.50;99.90;;;;;;5082414;28;20207;-92
2022/03/17 04:55:29;;;;;;;22.37;16.37;;;10.40;99.90;;;;;;5079888;28;20263;-86
2022/03/17 04:57:58;;;;;;;21.50;16.97;;;10.30;99.90;;;;;;5082356;28;20210;-92
2022/03/17 05:00:26;;;;;;;23.07;16.60;;;10.20;99.90;;;;;;5081534;28;20291;-90
2022/03/17 05:02:56;;;;;;;22.57;17.00;;;10.20;99.90;;;;;;5076067;28;20671;-89
2022/03/17 05:05:28;;;;;;;23.43;16.90;;;10.10;99.90;;;;;;5093949;28;20236;-91
2022/03/17 05:08:06;;;;;;;25.43;17.40;;;10.20;99.90;;;;;;5080837;28;20757;-89
2022/03/17 05:10:42;;;;;;;23.13;16.30;;;10.10;99.90;;;;;;5076914;28;20242;-90
2022/03/17 05:13:12;;;;;;;23.10;15.53;;;10.10;99.90;;;;;;5060094;28;20310;-89
2022/03/17 05:15:41;;;;;;;23.60;17.17;;;10.10;99.90;;;;;;5064187;28;20696;-90
2022/03/17 05:18:08;;;;;;;22.20;16.70;;;10.00;99.90;;;;;;5079035;28;20219;-88
2022/03/17 05:20:38;;;;;;;21.97;16.43;;;9.90;99.90;;;;;;5079133;28;20299;-91
2022/03/17 05:23:06;;;;;;;25.40;15.47;;;9.90;99.90;;;;;;5077005;28;20197;-89
2022/03/17 05:25:36;;;;;;;22.03;14.27;;;9.80;99.90;;;;;;5075419;28;20239;-88
2022/03/17 05:28:06;;;;;;;19.33;13.73;;;9.80;99.90;;;;;;5075462;28;20319;-90
2022/03/17 05:30:43;;;;;;;16.83;13.03;;;9.70;99.90;;;;;;5059708;28;20308;-90
2022/03/17 05:33:12;;;;;;;18.43;11.97;;;9.70;99.90;;;;;;5083940;28;20207;-89
2022/03/17 05:35:52;;;;;;;19.93;11.30;;;9.60;99.90;;;;;;5079204;28;20205;-89
2022/03/17 05:38:22;;;;;;;15.07;10.07;;;9.60;99.90;;;;;;5057976;28;20204;-89
2022/03/17 05:40:50;;;;;;;17.17;10.60;;;9.50;99.90;;;;;;5069632;28;20233;-88
2022/03/17 05:43:17;;;;;;;20.67;10.33;;;9.50;99.90;;;;;;5067044;28;20224;-88
2022/03/17 05:45:44;;;;;;;18.07;9.67;;;9.50;99.90;;;;;;5076835;28;20213;-88
2022/03/17 05:48:18;;;;;;;16.70;9.43;;;9.50;99.90;;;;;;5073000;28;20284;-88
2022/03/17 05:50:53;;;;;;;17.57;9.53;;;9.50;99.90;;;;;;5073344;28;20196;-89
2022/03/17 05:53:19;;;;;;;12.83;7.70;;;9.30;99.90;;;;;;5074969;28;20199;-86
2022/03/17 05:55:46;;;;;;;15.67;8.43;;;9.30;99.90;;;;;;5074001;28;20327;-88
2022/03/17 05:58:14;;;;;;;15.97;9.00;;;9.30;99.90;;;;;;5073433;28;20642;-88
2022/03/17 06:00:44;;;;;;;13.97;8.33;;;9.30;99.90;;;;;;5072063;28;20220;-88
2022/03/17 06:03:11;;;;;;;16.47;7.73;;;9.30;99.90;;;;;;5069122;28;20367;-89
2022/03/17 06:05:37;;;;;;;12.93;6.93;;;9.30;99.90;;;;;;5058083;28;20300;-85
2022/03/17 06:08:08;;;;;;;11.07;6.73;;;9.30;99.90;;;;;;5069300;28;20657;-89
2022/03/17 06:10:35;;;;;;;13.87;6.13;;;9.30;99.90;;;;;;5074027;28;20728;-89
2022/03/17 06:13:04;;;;;;;11.60;4.53;;;9.30;99.90;;;;;;5060103;28;20204;-88
2022/03/17 06:15:34;;;;;;;9.83;4.17;;;9.20;99.90;;;;;;5050085;28;20770;-86
2022/03/17 06:18:04;;;;;;;11.67;4.17;;;9.30;99.90;;;;;;5064821;28;20704;-87
2022/03/17 06:20:34;;;;;;;8.20;3.70;;;9.20;99.90;;;;;;5064276;28;20201;-87
2022/03/17 06:23:02;;;;;;;9.70;3.53;;;9.20;99.90;;;;;;5074108;28;20213;-88
2022/03/17 06:25:33;;;;;;;10.70;3.70;;;9.20;99.90;;;;;;5062622;28;20200;-87
2022/03/17 06:28:06;;;;;;;10.90;4.10;;;9.20;99.90;;;;;;5052372;28;20223;-86
2022/03/17 06:30:35;;;;;;;8.40;4.60;;;9.30;99.90;;;;;;5065537;28;20221;-85
2022/03/17 06:33:04;;;;;;;12.50;4.60;;;9.10;99.90;;;;;;5071141;28;20618;-88
2022/03/17 06:35:31;;;;;;;8.33;4.13;;;9.10;99.90;;;;;;5067460;28;20214;-89
2022/03/17 06:38:00;;;;;;;11.83;3.83;;;9.10;99.90;;;;;;5071986;28;20288;-89
2022/03/17 06:40:28;;;;;;;9.20;4.03;;;9.10;99.90;;;;;;5070189;28;20200;-88
2022/03/17 06:42:55;;;;;;;11.83;4.00;;;9.10;99.90;;;;;;5069353;28;20317;-88
2022/03/17 06:45:23;;;;;;;7.57;3.90;;;9.10;99.90;;;;;;5070682;28;20251;-89
2022/03/17 06:47:51;;;;;;;6.40;3.13;;;9.10;99.90;;;;;;5071520;28;20284;-88
2022/03/17 06:50:20;;;;;;;11.47;4.10;;;9.10;99.90;;;;;;5071304;28;20597;-86
2022/03/17 06:52:47;;;;;;;9.03;3.20;;;9.20;99.90;;;;;;5068943;28;20287;-86
2022/03/17 06:55:14;;;;;;;7.07;2.80;;;9.20;99.90;;;;;;5065227;28;20613;-87
2022/03/17 06:57:42;;;;;;;7.40;3.13;;;9.20;99.90;;;;;;5051531;28;20205;-87
2022/03/17 07:00:12;;;;;;;12.43;3.87;;;9.30;99.90;;;;;;5052291;28;20201;-85
2022/03/17 07:02:39;;;;;;;13.07;3.50;;;9.30;99.90;;;;;;5046744;28;20201;-84
2022/03/17 07:05:07;;;;;;;12.47;3.80;;;9.40;99.90;;;;;;5051814;28;20247;-84
2022/03/17 07:07:34;;;;;;;11.53;2.67;;;9.40;99.90;;;;;;5052741;28;20251;-88
2022/03/17 07:10:02;;;;;;;11.70;2.90;;;9.40;99.90;;;;;;5059000;28;20219;-89
2022/03/17 07:12:29;;;;;;;7.23;2.80;;;9.30;99.90;;;;;;5060710;28;20239;-87
2022/03/17 07:14:55;;;;;;;6.90;2.73;;;9.30;99.90;;;;;;5040670;28;20201;-88
2022/03/17 07:17:22;;;;;;;5.83;2.67;;;9.40;99.90;;;;;;5056098;28;20224;-89
2022/03/17 07:22:28;;;;;;;4.87;2.43;;;9.20;99.90;;;;;;5062360;28;20232;-88
2022/03/17 07:24:55;;;;;;;9.17;2.37;;;9.20;99.90;;;;;;5066525;28;20252;-88
2022/03/17 07:27:23;;;;;;;10.10;2.13;;;9.10;99.90;;;;;;5061589;28;20229;-88
2022/03/17 07:29:51;;;;;;;8.07;2.10;;;9.10;99.90;;;;;;5067238;28;20564;-87
2022/03/17 07:32:24;;;;;;;7.07;1.90;;;9.20;99.90;;;;;;5063066;28;20250;-84
2022/03/17 07:34:51;;;;;;;6.17;1.60;;;9.10;99.90;;;;;;5059165;28;20679;-87
2022/03/17 07:37:18;;;;;;;7.90;1.97;;;9.10;99.90;;;;;;5044511;28;20296;-89
2022/03/17 07:39:46;;;;;;;11.30;2.37;;;9.10;99.90;;;;;;5052704;28;20268;-88
2022/03/17 07:42:15;;;;;;;9.73;1.80;;;9.10;99.90;;;;;;5044319;28;20215;-88
2022/03/17 07:44:42;;;;;;;8.90;1.87;;;9.10;99.90;;;;;;5062692;28;20220;-89
2022/03/17 07:47:09;;;;;;;5.57;1.70;;;9.10;99.90;;;;;;5063922;28;20307;-88
2022/03/17 07:49:37;;;;;;;8.33;1.73;;;9.20;99.90;;;;;;5058906;28;20235;-90
2022/03/17 07:52:05;;;;;;;5.53;1.63;;;9.20;99.90;;;;;;5062129;28;20323;-87
2022/03/17 07:54:33;;;;;;;9.60;1.90;;;9.20;99.90;;;;;;5054688;28;20557;-85
2022/03/17 07:57:03;;;;;;;7.07;2.20;;;9.20;99.90;;;;;;5056164;28;20687;-87
2022/03/17 07:59:30;;;;;;;8.97;1.70;;;9.10;99.90;;;;;;5054829;28;20615;-88
2022/03/17 08:01:57;;;;;;;8.33;1.83;;;9.10;99.90;;;;;;5056125;28;20229;-88
2022/03/17 08:04:25;;;;;;;8.50;1.93;;;9.20;99.90;;;;;;5039657;28;20201;-87
2022/03/17 08:07:00;;;;;;;15.73;2.10;;;9.30;99.90;;;;;;5055364;28;20201;-86
2022/03/17 08:09:28;;;;;;;10.40;2.00;;;9.20;99.90;;;;;;5054400;28;20217;-88
2022/03/17 08:11:55;;;;;;;9.80;1.93;;;9.30;99.90;;;;;;5056371;28;20291;-88
2022/03/17 08:14:21;;;;;;;9.77;2.03;;;9.30;99.90;;;;;;5056056;28;20240;-89
2022/03/17 08:16:48;;;;;;;12.53;2.03;;;9.30;99.90;;;;;;5060180;28;20660;-87
2022/03/17 08:19:15;;;;;;;11.03;1.87;;;9.30;99.90;;;;;;5054297;28;20223;-88
2022/03/17 08:21:42;;;;;;;12.23;2.37;;;9.30;99.90;;;;;;5057169;28;20800;-87
2022/03/17 08:24:09;;;;;;;11.03;2.60;;;9.30;99.90;;;;;;5057615;28;20225;-87
2022/03/17 08:26:37;;;;;;;8.73;1.80;;;9.20;99.90;;;;;;5058094;28;20199;-87
2022/03/17 08:29:04;;;;;;;9.60;2.30;;;9.20;99.90;;;;;;5055763;28;20242;-89
2022/03/17 08:31:32;;;;;;;8.90;2.03;;;9.20;99.90;;;;;;5060631;28;20277;-87
2022/03/17 08:33:59;;;;;;;7.97;1.90;;;9.30;99.90;;;;;;5053506;28;20787;-86
2022/03/17 08:36:27;;;;;;;15.73;2.50;;;9.20;99.90;;;;;;5056350;28;20201;-87
2022/03/17 08:38:54;;;;;;;9.13;1.70;;;9.30;99.90;;;;;;5057227;28;20248;-87
2022/03/17 08:41:21;;;;;;;8.87;2.23;;;9.30;99.90;;;;;;5055585;28;20194;-87
2022/03/17 08:43:48;;;;;;;4.63;1.77;;;9.40;99.90;;;;;;5056592;28;20216;-88
2022/03/17 08:49:19;;;;;;;12.20;1.80;;;9.60;99.90;;;;;;5059042;28;20302;-88
2022/03/17 08:51:46;;;;;;;9.10;1.87;;;9.70;99.90;;;;;;5055183;28;20203;-88
2022/03/17 08:54:14;;;;;;;9.53;1.87;;;9.70;99.90;;;;;;5056485;28;20654;-90
2022/03/17 08:56:40;;;;;;;7.17;2.00;;;9.70;99.90;;;;;;5053761;28;20229;-88
2022/03/17 08:59:10;;;;;;;9.97;1.97;;;9.70;99.90;;;;;;5056525;28;20221;-89
2022/03/17 09:01:37;;;;;;;10.50;2.00;;;9.80;99.90;;;;;;5045420;28;20583;-90
2022/03/17 09:04:05;;;;;;;9.97;1.67;;;9.70;99.90;;;;;;5056914;28;20205;-89
2022/03/17 09:06:32;;;;;;;9.47;2.30;;;9.70;99.90;;;;;;5061742;28;20213;-88
2022/03/17 09:08:59;;;;;;;8.10;1.83;;;9.70;99.90;;;;;;5053685;28;20222;-89
2022/03/17 09:11:27;;;;;;;16.80;2.13;;;9.80;99.90;;;;;;5061797;28;20265;-89
2022/03/17 09:13:55;;;;;;;8.97;2.00;;;9.80;99.90;;;;;;5060853;28;20234;-88
2022/03/17 09:16:21;;;;;;;7.90;1.47;;;9.80;99.90;;;;;;5057489;28;20234;-89
2022/03/17 09:18:50;;;;;;;12.90;1.80;;;9.80;99.90;;;;;;5057961;28;20241;-88
2022/03/17 09:21:17;;;;;;;8.90;1.57;;;9.90;99.90;;;;;;5055116;28;20208;-89
2022/03/17 09:23:44;;;;;;;9.07;1.37;;;9.90;99.90;;;;;;5044445;28;20211;-90
2022/03/17 09:26:14;;;;;;;7.80;1.73;;;10.00;99.90;;;;;;5061652;28;20227;-87
2022/03/17 09:28:42;;;;;;;14.13;2.00;;;10.10;99.90;;;;;;5049771;28;20324;-89
2022/03/17 09:31:09;;;;;;;11.97;1.97;;;10.20;99.90;;;;;;5054708;28;20261;-89
2022/03/17 09:33:36;;;;;;;8.60;1.60;;;10.20;99.90;;;;;;5052482;28;20209;-89
2022/03/17 09:36:09;;;;;;;7.07;1.90;;;10.10;99.90;;;;;;5050683;28;20208;-87
2022/03/17 09:38:37;;;;;;;11.17;1.80;;;10.10;99.90;;;;;;5032869;28;20526;-90
2022/03/17 09:41:23;;;;;;;14.27;2.10;;;10.10;99.90;;;;;;5057492;28;20304;-88
2022/03/17 09:43:52;;;;;;;8.00;2.90;;;10.10;99.90;;;;;;5051153;28;20240;-89
2022/03/17 09:46:21;;;;;;;9.60;2.00;;;10.10;99.90;;;;;;5056845;28;20304;-88
2022/03/17 09:48:52;;;;;;;10.10;2.20;;;10.10;99.90;;;;;;5055179;28;20344;-87
2022/03/17 09:51:28;;;;;;;5.90;2.03;;;10.10;99.90;;;;;;5051271;28;20251;-89
2022/03/17 09:54:00;;;;;;;7.60;1.33;;;10.00;99.90;;;;;;5057886;28;20250;-88
2022/03/17 09:56:28;;;;;;;12.87;2.33;;;10.00;99.90;;;;;;5042527;28;20240;-90
2022/03/17 09:58:57;;;;;;;6.77;1.53;;;10.10;99.90;;;;;;5035425;28;20221;-89
2022/03/17 10:01:28;;;;;;;10.03;2.50;;;10.10;99.90;;;;;;5055122;28;20327;-86
2022/03/17 10:04:00;;;;;;;8.77;1.87;;;10.10;99.90;;;;;;5037818;28;20552;-89
2022/03/17 10:06:29;;;;;;;4.90;2.03;;;10.10;99.90;;;;;;5040731;28;20209;-87
2022/03/17 10:08:57;;;;;;;7.70;1.77;;;10.20;99.90;;;;;;5060533;28;20238;-89
2022/03/17 10:11:30;;;;;;;4.17;1.30;;;10.20;99.90;;;;;;5057088;28;20516;-88
2022/03/17 10:13:59;;;;;;;4.20;1.43;;;10.40;99.90;;;;;;5051569;28;20241;-88
2022/03/17 10:16:27;;;;;;;6.97;2.10;;;10.40;99.90;;;;;;5058587;28;20255;-89
2022/03/17 10:19:06;;;;;;;7.00;1.80;;;10.50;99.90;;;;;;5054123;28;20213;-85
2022/03/17 10:21:34;;;;;;;10.73;2.43;;;10.60;99.90;;;;;;5040447;28;20399;-88
2022/03/17 10:24:06;;;;;;;6.53;1.67;;;10.60;99.90;;;;;;5054763;28;20261;-87
2022/03/17 10:26:50;;;;;;;12.13;1.70;;;10.70;99.90;;;;;;5034003;28;20296;-89
2022/03/17 10:29:19;;;;;;;6.20;1.97;;;10.70;99.90;;;;;;5042682;28;20239;-89
2022/03/17 10:31:50;;;;;;;10.23;2.67;;;10.80;99.90;;;;;;5050167;28;20214;-89
2022/03/17 10:34:19;;;;;;;9.30;1.60;;;10.80;99.90;;;;;;5047928;28;20203;-91
2022/03/17 10:36:47;;;;;;;9.07;1.73;;;10.80;99.90;;;;;;5050730;28;20301;-91
2022/03/17 10:39:15;;;;;;;5.90;1.60;;;10.80;99.90;;;;;;5050005;28;20194;-89
2022/03/17 10:41:45;;;;;;;5.27;1.53;;;10.90;99.90;;;;;;5048360;28;20208;-88
2022/03/17 10:44:16;;;;;;;5.13;1.67;;;11.00;99.90;;;;;;5050644;28;20266;-91
2022/03/17 10:46:57;;;;;;;6.90;1.83;;;11.10;99.90;;;;;;5051227;28;20228;-90
2022/03/17 10:49:24;;;;;;;6.77;2.33;;;11.30;99.90;;;;;;5026874;28;20231;-86
2022/03/17 10:51:54;;;;;;;6.97;2.30;;;11.20;99.90;;;;;;5042119;28;20209;-87
2022/03/17 10:54:22;;;;;;;7.83;1.60;;;11.10;99.90;;;;;;5047837;28;20213;-88
2022/03/17 10:57:02;;;;;;;9.17;1.67;;;10.90;99.90;;;;;;5043595;28;20264;-89
2022/03/17 10:59:44;;;;;;;4.77;1.87;;;10.90;99.90;;;;;;5045367;28;20215;-89
2022/03/17 11:02:17;;;;;;;2.53;1.23;;;11.00;99.90;;;;;;5049961;28;20238;-88
2022/03/17 11:04:46;;;;;;;4.17;1.33;;;11.10;99.90;;;;;;5047997;28;20211;-89
2022/03/17 11:07:14;;;;;;;7.23;1.43;;;11.20;99.90;;;;;;5048384;28;20211;-90
2022/03/17 11:09:43;;;;;;;8.10;1.90;;;11.30;99.90;;;;;;5049931;28;20235;-88
2022/03/17 11:12:17;;;;;;;5.63;1.40;;;11.40;99.90;;;;;;5055950;28;20329;-89
2022/03/17 11:14:50;;;;;;;6.53;1.60;;;11.60;99.90;;;;;;5047268;28;20208;-90
2022/03/17 11:17:26;;;;;;;4.53;1.33;;;11.80;99.90;;;;;;5047121;28;20305;-90
2022/03/17 11:20:02;;;;;;;5.10;1.70;;;11.90;99.90;;;;;;5051087;28;20201;-89
2022/03/17 11:22:32;;;;;;;4.70;1.30;;;12.10;99.90;;;;;;5039659;28;20579;-92
2022/03/17 11:25:17;;;;;;;10.47;1.67;;;12.20;99.90;;;;;;5052737;28;20235;-89
2022/03/17 11:27:50;;;;;;;11.63;1.67;;;12.20;99.90;;;;;;5039682;28;20217;-89
2022/03/17 11:30:18;;;;;;;6.43;1.90;;;12.10;99.90;;;;;;5049829;28;20285;-89
2022/03/17 11:32:55;;;;;;;4.97;1.70;;;12.00;99.90;;;;;;5050840;28;20274;-90
2022/03/17 11:35:29;;;;;;;6.77;1.53;;;12.10;99.90;;;;;;5046609;28;20772;-90
2022/03/17 11:38:16;;;;;;;4.73;1.30;;;12.10;99.90;;;;;;5032854;28;20205;-90
2022/03/17 11:41:04;;;;;;;9.83;1.87;;;12.10;99.90;;;;;;5055075;28;20212;-92
2022/03/17 11:43:47;;;;;;;4.77;1.60;;;12.20;99.90;;;;;;5039840;28;20208;-91
2022/03/17 11:46:22;;;;;;;4.83;1.63;;;12.40;99.90;;;;;;5049967;28;20225;-90
2022/03/17 11:48:51;;;;;;;8.30;1.50;;;12.60;99.90;;;;;;5050522;28;20319;-88
2022/03/17 11:51:19;;;;;;;5.33;2.40;;;12.90;99.90;;;;;;5051392;28;20733;-90
2022/03/17 11:53:53;;;;;;;6.70;1.47;;;13.00;99.90;;;;;;5053409;28;20246;-89
2022/03/17 11:56:37;;;;;;;3.97;1.73;;;13.20;99.90;;;;;;5069435;28;20267;-88
2022/03/17 11:59:08;;;;;;;6.00;1.47;;;13.20;99.90;;;;;;5077689;28;20232;-89
2022/03/17 12:01:41;;;;;;;9.03;2.20;;;13.10;99.90;;;;;;5074057;28;20346;-92
2022/03/17 12:04:19;;;;;;;6.37;1.80;;;13.10;99.90;;;;;;5081626;28;20204;-89
2022/03/17 12:07:07;;;;;;;7.80;1.87;;;13.20;99.90;;;;;;5053330;28;20288;-87
2022/03/17 12:09:37;;;;;;;6.20;1.67;;;13.40;99.90;;;;;;5046930;28;20240;-88
2022/03/17 12:12:17;;;;;;;6.53;1.20;;;13.50;99.90;;;;;;5060950;28;20205;-89
2022/03/17 12:14:49;;;;;;;4.57;1.70;;;13.60;99.90;;;;;;5066856;28;20240;-88
2022/03/17 12:17:17;;;;;;;6.77;1.50;;;13.70;99.90;;;;;;5067468;28;20297;-89
2022/03/17 12:19:51;;;;;;;9.10;1.90;;;13.60;99.90;;;;;;5077298;28;20204;-88
2022/03/17 12:22:36;;;;;;;9.70;2.00;;;13.40;99.90;;;;;;5074482;28;20223;-90
2022/03/17 12:25:22;;;;;;;3.20;1.67;;;13.20;99.90;;;;;;5058310;28;20256;-89
2022/03/17 12:28:01;;;;;;;6.23;1.30;;;13.10;99.90;;;;;;5069083;28;20208;-87
2022/03/17 12:30:29;;;;;;;4.53;1.70;;;13.00;99.90;;;;;;5069057;28;20226;-86
2022/03/17 12:32:57;;;;;;;2.90;1.40;;;12.90;99.90;;;;;;5073446;28;20258;-88
2022/03/17 12:35:26;;;;;;;4.57;1.50;;;12.90;99.90;;;;;;5069144;28;20299;-88
2022/03/17 12:38:03;;;;;;;3.40;1.30;;;13.00;99.90;;;;;;5068108;28;20304;-89
2022/03/17 12:40:46;;;;;;;8.03;1.43;;;13.00;99.90;;;;;;5065789;28;20200;-87
2022/03/17 12:43:17;;;;;;;5.53;1.40;;;13.10;99.90;;;;;;5050050;28;20638;-87
2022/03/17 12:45:47;;;;;;;6.77;1.90;;;13.00;99.90;;;;;;5073003;28;20333;-84
2022/03/17 12:48:16;;;;;;;6.00;1.37;;;13.10;99.90;;;;;;5067661;28;20312;-90
2022/03/17 12:50:44;;;;;;;5.23;1.40;;;13.20;99.90;;;;;;5071920;28;20222;-88
2022/03/17 12:53:11;;;;;;;5.93;1.77;;;13.30;99.90;;;;;;5068481;28;20197;-88
2022/03/17 12:55:38;;;;;;;5.00;1.60;;;13.30;99.90;;;;;;5051720;28;21349;-88
2022/03/17 12:58:14;;;;;;;4.70;1.50;;;13.30;99.90;;;;;;5044797;28;20208;-87
2022/03/17 13:00:42;;;;;;;5.67;1.67;;;13.30;99.90;;;;;;5049142;28;20251;-88
2022/03/17 13:03:21;;;;;;;4.53;1.20;;;13.40;99.90;;;;;;5048643;28;20204;-89
2022/03/17 13:08:39;;;;;;;4.10;1.40;;;13.60;99.90;;;;;;5057395;28;20263;-87
2022/03/17 13:14:20;;;;;;;5.20;1.60;;;13.60;99.90;;;;;;5058029;28;20204;-87
2022/03/17 13:17:03;;;;;;;4.23;1.60;;;13.50;99.90;;;;;;5052612;28;20225;-88
2022/03/17 13:19:30;;;;;;;4.97;1.60;;;13.20;99.90;;;;;;5059386;28;20205;-90
2022/03/17 13:22:06;;;;;;;4.53;1.83;;;13.00;99.90;;;;;;5054137;28;20228;-89
2022/03/17 13:24:33;;;;;;;4.67;1.57;;;13.00;99.90;;;;;;5049882;28;20661;-91
2022/03/17 13:27:01;;;;;;;3.83;1.73;;;13.10;99.90;;;;;;5042098;28;20206;-85
2022/03/17 13:29:35;;;;;;;6.63;1.93;;;13.30;99.90;;;;;;5042425;28;20232;-88